createdAt,value
2019-05-22T00:03:47.115Z,12.43
2019-05-22T00:07:52.072Z,12.42
2019-05-22T00:11:58.613Z,12.42
2019-05-22T00:16:04.088Z,12.41
2019-05-22T00:20:11.326Z,12.39
2019-05-22T00:24:19.503Z,12.38
2019-05-22T00:28:25.543Z,12.40
2019-05-22T00:32:30.851Z,12.38
2019-05-22T00:36:36.096Z,12.40
2019-05-22T00:40:42.805Z,12.37
2019-05-22T00:44:48.273Z,12.32
2019-05-22T00:48:54.315Z,12.32
2019-05-22T00:53:02.566Z,12.35
2019-05-22T00:57:13.261Z,12.38
2019-05-22T01:01:22.441Z,12.35
2019-05-22T01:05:30.092Z,12.29
2019-05-22T01:09:44.244Z,12.29
2019-05-22T01:13:50.007Z,12.34
2019-05-22T01:17:57.026Z,12.39
2019-05-22T01:22:02.248Z,12.37
2019-05-22T01:26:09.165Z,12.35
2019-05-22T01:30:19.042Z,12.31
2019-05-22T01:34:28.259Z,12.32
2019-05-22T01:38:34.830Z,12.29
2019-05-22T01:42:41.640Z,12.30
2019-05-22T01:46:46.536Z,12.31
2019-05-22T01:50:55.347Z,12.30
2019-05-22T01:55:01.617Z,12.29
2019-05-22T01:59:08.171Z,12.29
2019-05-22T02:03:14.814Z,12.28
2019-05-22T02:07:20.573Z,12.26
2019-05-22T02:11:27.313Z,12.22
2019-05-22T02:15:34.129Z,12.22
2019-05-22T02:19:39.270Z,12.15
2019-05-22T02:23:45.710Z,12.13
2019-05-22T02:27:51.620Z,12.12
2019-05-22T02:31:58.233Z,12.07
2019-05-22T02:36:04.515Z,12.10
2019-05-22T02:40:15.903Z,12.10
2019-05-22T02:44:22.837Z,12.08
2019-05-22T02:48:28.191Z,12.08
2019-05-22T02:52:33.277Z,12.09
2019-05-22T02:56:38.440Z,12.07
2019-05-22T03:00:48.943Z,12.04
2019-05-22T03:05:03.905Z,12.01
2019-05-22T03:09:18.273Z,11.98
2019-05-22T03:13:26.401Z,11.90
2019-05-22T03:17:31.443Z,11.91
2019-05-22T03:21:36.719Z,11.94
2019-05-22T03:25:43.634Z,11.95
2019-05-22T03:29:53.417Z,11.95
2019-05-22T03:34:00.031Z,11.94
2019-05-22T03:38:05.177Z,11.95
2019-05-22T03:42:11.914Z,11.97
2019-05-22T03:46:23.344Z,11.97
2019-05-22T03:50:29.502Z,11.95
2019-05-22T03:54:36.227Z,11.95
2019-05-22T03:58:42.071Z,11.93
2019-05-22T04:02:51.809Z,11.90
2019-05-22T04:06:57.728Z,11.89
2019-05-22T04:11:05.148Z,11.91
2019-05-22T04:15:13.720Z,11.94
2019-05-22T04:19:18.611Z,11.94
2019-05-22T04:23:24.127Z,11.92
2019-05-22T04:27:30.744Z,11.96
2019-05-22T04:31:38.686Z,11.97
2019-05-22T04:35:43.821Z,11.98
2019-05-22T04:39:50.627Z,11.98
2019-05-22T04:43:55.530Z,11.93
2019-05-22T04:48:02.450Z,11.89
2019-05-22T04:52:07.992Z,11.89
2019-05-22T04:56:12.951Z,11.96
2019-05-22T05:00:19.873Z,11.97
2019-05-22T05:04:25.678Z,12.01
2019-05-22T05:08:30.572Z,12.07
2019-05-22T05:12:35.610Z,12.08
2019-05-22T05:16:40.573Z,12.06
2019-05-22T05:20:45.544Z,12.15
2019-05-22T05:24:50.719Z,12.19
2019-05-22T05:28:56.294Z,12.21
2019-05-22T05:33:03.008Z,12.23
2019-05-22T05:37:10.100Z,12.28
2019-05-22T05:41:16.071Z,12.32
2019-05-22T05:45:20.963Z,12.42
2019-05-22T05:49:27.364Z,12.47
2019-05-22T05:53:37.076Z,12.53
2019-05-22T05:57:45.307Z,12.55
2019-05-22T06:01:52.078Z,12.74
2019-05-22T06:05:57.052Z,13.10
2019-05-22T06:10:39.360Z,13.03
2019-05-22T06:14:44.263Z,12.92
2019-05-22T06:18:50.932Z,12.80
2019-05-22T06:23:23.956Z,12.80
2019-05-22T06:27:33.332Z,12.89
2019-05-22T06:31:50.219Z,13.04
2019-05-22T06:35:55.197Z,13.14
2019-05-22T06:40:01.229Z,13.23
2019-05-22T06:44:30.101Z,13.16
2019-05-22T06:48:35.053Z,13.09
2019-05-22T06:52:40.102Z,12.96
2019-05-22T06:56:44.990Z,12.88
2019-05-22T07:00:49.963Z,12.89
2019-05-22T07:04:55.395Z,13.03
2019-05-22T07:09:00.285Z,13.16
2019-05-22T07:13:05.623Z,13.20
2019-05-22T07:17:12.057Z,13.06
2019-05-22T07:21:16.968Z,12.95
2019-05-22T07:25:22.697Z,12.97
2019-05-22T07:29:27.858Z,13.09
2019-05-22T07:33:33.799Z,13.27
2019-05-22T07:37:42.468Z,13.43
2019-05-22T07:41:47.520Z,13.53
2019-05-22T07:45:54.490Z,13.58
2019-05-22T07:49:59.517Z,13.61
2019-05-22T07:54:05.740Z,13.66
2019-05-22T07:58:13.108Z,13.85
2019-05-22T08:02:18.591Z,14.17
2019-05-22T08:06:23.834Z,14.28
2019-05-22T08:10:29.239Z,14.00
2019-05-22T08:14:34.296Z,13.78
2019-05-22T08:18:39.753Z,13.86
2019-05-22T08:22:47.250Z,13.97
2019-05-22T08:26:54.866Z,14.07
2019-05-22T08:30:59.658Z,13.90
2019-05-22T08:35:07.423Z,13.75
2019-05-22T08:39:14.334Z,13.79
2019-05-22T08:43:19.784Z,14.00
2019-05-22T08:47:25.230Z,13.66
2019-05-22T08:51:30.308Z,13.66
2019-05-22T08:55:36.173Z,13.78
2019-05-22T08:59:42.562Z,13.84
2019-05-22T09:03:48.006Z,14.10
2019-05-22T09:07:53.078Z,14.10
2019-05-22T09:11:58.117Z,14.16
2019-05-22T09:16:04.815Z,13.96
2019-05-22T09:20:10.181Z,13.55
2019-05-22T09:24:17.362Z,13.74
2019-05-22T09:28:22.262Z,13.74
2019-05-22T09:32:27.162Z,14.22
2019-05-22T09:36:32.816Z,14.57
2019-05-22T09:40:38.178Z,14.57
2019-05-22T09:44:43.077Z,15.39
2019-05-22T09:48:47.975Z,15.39
2019-05-22T09:52:57.557Z,15.73
2019-05-22T09:57:00.063Z,15.80
2019-05-22T10:01:06.872Z,15.82
2019-05-22T10:05:13.741Z,15.77
2019-05-22T10:09:18.716Z,15.68
2019-05-22T10:13:24.597Z,15.56
2019-05-22T10:17:30.568Z,15.33
2019-05-22T10:21:36.762Z,15.42
2019-05-22T10:25:41.830Z,15.62
2019-05-22T10:29:47.434Z,15.63
2019-05-22T10:33:52.527Z,15.73
2019-05-22T10:37:57.875Z,15.71
2019-05-22T10:42:02.766Z,15.66
2019-05-22T10:46:09.333Z,15.41
2019-05-22T10:50:15.467Z,15.43
2019-05-22T10:54:20.635Z,15.52
2019-05-22T10:58:25.700Z,15.53
2019-05-22T11:02:31.817Z,15.53
2019-05-22T11:06:37.608Z,15.34
2019-05-22T11:10:45.145Z,15.11
2019-05-22T11:14:49.172Z,15.12
2019-05-22T11:18:55.882Z,15.16
2019-05-22T11:23:00.988Z,15.01
2019-05-22T11:27:06.442Z,15.15
2019-05-22T11:31:11.708Z,15.33
2019-05-22T11:35:18.172Z,15.52
2019-05-22T11:39:38.189Z,15.97
2019-05-22T11:43:30.738Z,16.48
2019-05-22T11:47:35.702Z,16.77
2019-05-22T11:51:40.677Z,16.87
2019-05-22T11:55:46.497Z,16.86
2019-05-22T11:59:51.797Z,16.94
2019-05-22T12:03:59.306Z,16.93
2019-05-22T12:08:06.226Z,16.81
2019-05-22T12:12:12.074Z,17.13
2019-05-22T12:16:18.123Z,17.56
2019-05-22T12:20:24.837Z,17.21
2019-05-22T12:24:36.634Z,16.95
2019-05-22T12:28:36.956Z,16.58
2019-05-22T12:32:42.280Z,16.61
2019-05-22T12:36:51.018Z,16.82
2019-05-22T12:40:54.156Z,16.57
2019-05-22T12:44:59.372Z,16.61
2019-05-22T12:49:08.522Z,16.40
2019-05-22T12:53:12.678Z,16.45
2019-05-22T12:57:18.887Z,16.38
2019-05-22T13:01:26.019Z,15.95
2019-05-22T13:05:32.596Z,15.84
2019-05-22T13:09:38.248Z,16.17
2019-05-22T13:13:43.283Z,16.35
2019-05-22T13:17:49.515Z,16.40
2019-05-22T13:21:56.738Z,16.35
2019-05-22T13:26:02.971Z,16.36
2019-05-22T13:30:09.615Z,16.33
2019-05-22T13:34:16.651Z,16.17
2019-05-22T13:38:22.008Z,16.07
2019-05-22T13:42:27.115Z,16.39
2019-05-22T13:46:32.416Z,16.63
2019-05-22T13:50:37.421Z,16.52
2019-05-22T13:54:44.434Z,16.36
2019-05-22T13:58:49.757Z,16.45
2019-05-22T14:02:54.737Z,16.70
2019-05-22T14:06:59.897Z,16.57
2019-05-22T14:11:06.103Z,16.40
2019-05-22T14:15:12.048Z,16.39
2019-05-22T14:19:17.311Z,16.35
2019-05-22T14:23:22.330Z,16.47
2019-05-22T14:27:27.300Z,16.48
2019-05-22T14:31:33.405Z,16.66
2019-05-22T14:35:48.489Z,16.79
2019-05-22T14:39:47.290Z,17.05
2019-05-22T14:43:52.521Z,16.96
2019-05-22T14:47:57.475Z,16.99
2019-05-22T14:52:03.372Z,17.08
2019-05-22T14:56:10.950Z,17.20
2019-05-22T15:00:19.466Z,17.23
2019-05-22T15:04:25.898Z,17.22
2019-05-22T15:08:31.048Z,17.24
2019-05-22T15:12:36.353Z,17.52
2019-05-22T15:16:41.392Z,17.70
2019-05-22T15:21:02.462Z,17.65
2019-05-22T15:25:10.648Z,17.78
2019-05-22T15:29:15.535Z,17.94
2019-05-22T15:33:20.515Z,18.18
2019-05-22T15:37:26.246Z,18.50
2019-05-22T15:41:32.562Z,18.64
2019-05-22T15:45:39.980Z,18.75
2019-05-22T15:49:45.208Z,18.68
2019-05-22T15:53:50.174Z,18.80
2019-05-22T15:57:58.166Z,18.77
2019-05-22T16:02:04.874Z,18.84
2019-05-22T16:06:11.045Z,19.02
2019-05-22T16:10:16.160Z,18.86
2019-05-22T16:14:21.908Z,18.57
2019-05-22T16:18:29.337Z,18.25
2019-05-22T16:22:36.046Z,17.90
2019-05-22T16:26:42.484Z,17.88
2019-05-22T16:30:48.891Z,17.85
2019-05-22T16:34:54.935Z,17.89
2019-05-22T16:39:00.652Z,17.99
2019-05-22T16:43:07.125Z,18.10
2019-05-22T16:47:12.972Z,18.16
2019-05-22T16:51:19.768Z,18.28
2019-05-22T16:55:26.051Z,18.38
2019-05-22T16:59:31.494Z,18.39
2019-05-22T17:03:36.800Z,18.41
2019-05-22T17:07:43.902Z,18.30
2019-05-22T17:11:50.800Z,18.22
2019-05-22T17:15:56.446Z,18.24
2019-05-22T17:20:02.386Z,18.20
2019-05-22T17:24:11.485Z,18.06
2019-05-22T17:28:17.823Z,17.94
2019-05-22T17:32:25.691Z,17.76
2019-05-22T17:36:31.634Z,17.58
2019-05-22T17:40:37.337Z,17.47
2019-05-22T17:44:45.919Z,17.43
2019-05-22T17:48:53.018Z,17.31
2019-05-22T17:52:58.943Z,17.20
2019-05-22T17:57:05.294Z,17.16
2019-05-22T18:01:11.767Z,17.04
2019-05-22T18:05:18.670Z,16.90
2019-05-22T18:09:23.716Z,16.76
2019-05-22T18:13:28.750Z,16.68
2019-05-22T18:17:33.895Z,16.63
2019-05-22T18:21:40.579Z,16.56
2019-05-22T18:25:45.695Z,16.43
2019-05-22T18:29:52.237Z,16.30
2019-05-22T18:33:57.156Z,16.19
2019-05-22T18:38:04.620Z,16.11
2019-05-22T18:42:09.825Z,16.03
2019-05-22T18:46:16.468Z,15.92
2019-05-22T18:50:21.513Z,15.84
2019-05-22T18:54:26.427Z,15.74
2019-05-22T18:58:31.581Z,15.63
2019-05-22T19:02:36.816Z,15.53
2019-05-22T19:06:42.554Z,15.40
2019-05-22T19:10:47.505Z,15.27
2019-05-22T19:14:52.359Z,15.14
2019-05-22T19:18:57.239Z,14.99
2019-05-22T19:23:02.144Z,14.83
2019-05-22T19:27:08.075Z,14.66
2019-05-22T19:31:13.153Z,14.45
2019-05-22T19:35:18.390Z,14.28
2019-05-22T19:39:23.434Z,14.09
2019-05-22T19:43:28.892Z,13.96
2019-05-22T19:47:34.142Z,13.63
2019-05-22T19:51:39.493Z,13.63
2019-05-22T19:55:45.434Z,13.56
2019-05-22T19:59:50.853Z,13.46
2019-05-22T20:03:57.256Z,13.29
2019-05-22T20:08:02.231Z,12.98
2019-05-22T20:12:09.014Z,12.98
2019-05-22T20:16:14.151Z,12.75
2019-05-22T20:20:19.855Z,12.61
2019-05-22T20:24:25.290Z,12.47
2019-05-22T20:28:31.297Z,12.39
2019-05-22T20:32:38.071Z,12.32
2019-05-22T20:36:43.050Z,12.18
2019-05-22T20:40:48.033Z,12.08
2019-05-22T20:44:53.556Z,12.00
2019-05-22T20:49:00.703Z,11.98
2019-05-22T20:53:07.368Z,11.94
2019-05-22T20:57:13.363Z,11.82
2019-05-22T21:01:18.837Z,11.46
2019-05-22T21:05:23.787Z,11.21
2019-05-22T21:09:29.758Z,11.07
2019-05-22T21:13:35.542Z,10.93
2019-05-22T21:17:42.086Z,10.88
2019-05-22T21:21:47.892Z,10.85
2019-05-22T21:25:52.843Z,10.76
2019-05-22T21:29:58.076Z,10.79
2019-05-22T21:34:04.210Z,10.85
2019-05-22T21:38:09.384Z,10.87
2019-05-22T21:42:15.990Z,10.81
2019-05-22T21:46:20.878Z,10.76
2019-05-22T21:50:26.117Z,10.50
2019-05-22T21:54:31.186Z,10.39
2019-05-22T21:58:37.099Z,10.31
2019-05-22T22:02:45.110Z,10.32
2019-05-22T22:06:52.614Z,10.38
2019-05-22T22:10:58.522Z,10.22
2019-05-22T22:15:04.753Z,9.92
2019-05-22T22:19:11.561Z,9.81
2019-05-22T22:23:17.685Z,9.87
2019-05-22T22:27:23.034Z,9.94
2019-05-22T22:31:30.458Z,10.00
2019-05-22T22:35:35.865Z,10.02
2019-05-22T22:39:43.048Z,10.00
2019-05-22T22:43:49.008Z,9.88
2019-05-22T22:47:54.061Z,9.59
2019-05-22T22:52:01.002Z,9.32
2019-05-22T22:56:08.322Z,9.20
2019-05-22T23:00:16.284Z,9.23
2019-05-22T23:04:24.492Z,9.24
2019-05-22T23:08:31.763Z,9.25
2019-05-22T23:12:38.353Z,9.14
2019-05-22T23:16:44.196Z,9.03
2019-05-22T23:20:48.824Z,8.99
2019-05-22T23:24:56.151Z,8.95
2019-05-22T23:29:01.907Z,8.91
2019-05-22T23:33:06.776Z,8.89
2019-05-22T23:37:14.874Z,8.83
2019-05-22T23:41:20.439Z,8.79
2019-05-22T23:45:26.668Z,8.80
2019-05-22T23:49:32.028Z,8.79
2019-05-22T23:53:37.576Z,8.69
2019-05-22T23:57:43.506Z,8.64
